Time;durP1;ratioP1;P1;durP2;ratioP2;P2;SDS_P1;SDS_P2;PMS_P1;PMS_P2;Temp;Humidity;BMP_temperature;BMP_pressure;BME280_temperature;BME280_humidity;BME280_pressure;Samples;Min_cycle;Max_cycle;Signal;HPM_P1;HPM_P2
2022/04/09 00:00:46;;;;;;;1.05;1.05;;;;;;;;;;6187747;23;20460;-80
2022/04/09 00:03:14;;;;;;;0.90;0.90;;;;;;;;;;6176762;23;20025;-80
2022/04/09 00:05:43;;;;;;;0.73;0.73;;;;;;;;;;6182336;23;20021;-80
2022/04/09 00:08:11;;;;;;;1.38;1.13;;;;;;;;;;6186361;23;20013;-80
2022/04/09 00:10:39;;;;;;;2.92;0.88;;;;;;;;;;6179520;23;20021;-80
2022/04/09 00:13:07;;;;;;;1.27;1.17;;;;;;;;;;6159248;23;20357;-79
2022/04/09 00:15:36;;;;;;;0.93;0.93;;;;;;;;;;6187595;23;20013;-80
2022/04/09 00:18:04;;;;;;;0.85;0.85;;;;;;;;;;6181603;23;20025;-80
2022/04/09 00:20:33;;;;;;;1.10;1.10;;;;;;;;;;6187136;23;20755;-80
2022/04/09 00:23:01;;;;;;;1.02;1.02;;;;;;;;;;6176773;23;20037;-80
2022/04/09 00:25:29;;;;;;;1.02;0.93;;;;;;;;;;6184216;23;20021;-80
2022/04/09 00:27:57;;;;;;;0.80;0.80;;;;;;;;;;6181929;23;20542;-80
2022/04/09 00:30:26;;;;;;;6.45;2.42;;;;;;;;;;6182063;23;20025;-80
2022/04/09 00:32:54;;;;;;;0.50;0.50;;;;;;;;;;6188327;23;20017;-78
2022/04/09 00:35:22;;;;;;;0.90;0.90;;;;;;;;;;6188783;23;20028;-79
2022/04/09 00:37:50;;;;;;;0.82;0.80;;;;;;;;;;6157213;23;20021;-79
2022/04/09 00:40:19;;;;;;;0.80;0.80;;;;;;;;;;6189231;23;20013;-78
2022/04/09 00:42:47;;;;;;;0.85;0.70;;;;;;;;;;6180474;23;20032;-78
2022/04/09 00:45:15;;;;;;;1.88;1.05;;;;;;;;;;6186482;23;20025;-78
2022/04/09 00:47:43;;;;;;;0.82;0.82;;;;;;;;;;6188607;23;20314;-80
2022/04/09 00:50:20;;;;;;;1.55;0.80;;;;;;;;;;6182404;23;20029;-78
2022/04/09 00:53:42;;;;;;;0.57;0.57;;;;;;;;;;6185591;23;20678;-78
2022/04/09 00:57:14;;;;;;;0.93;0.90;;;;;;;;;;6188324;23;20035;-78
2022/04/09 01:00:29;;;;;;;1.17;1.00;;;;;;;;;;6146259;23;20024;-78
2022/04/09 01:03:51;;;;;;;3.85;2.38;;;;;;;;;;6161836;23;20029;-81
2022/04/09 01:07:18;;;;;;;1.25;0.73;;;;;;;;;;6135798;23;20036;-79
2022/04/09 01:10:39;;;;;;;1.77;1.05;;;;;;;;;;6126938;23;20025;-80
2022/04/09 01:13:58;;;;;;;0.80;0.68;;;;;;;;;;6159750;23;20045;-78
2022/04/09 01:17:06;;;;;;;;;;;;;;;;;;6162642;23;20021;-79
2022/04/09 01:20:29;;;;;;;1.38;0.80;;;;;;;;;;6150041;23;20237;-78
2022/04/09 01:23:52;;;;;;;0.60;0.60;;;;;;;;;;6124702;23;20032;-80
2022/04/09 01:27:17;;;;;;;1.05;0.90;;;;;;;;;;6152768;23;20036;-78
2022/04/09 01:30:16;;;;;;;1.00;0.70;;;;;;;;;;6182479;23;20021;-80
2022/04/09 01:32:45;;;;;;;1.20;1.05;;;;;;;;;;6162252;23;20668;-80
2022/04/09 01:35:16;;;;;;;1.30;0.70;;;;;;;;;;6176603;23;20444;-79
2022/04/09 01:37:45;;;;;;;0.82;0.77;;;;;;;;;;6157170;23;20024;-81
2022/04/09 01:40:17;;;;;;;0.82;0.82;;;;;;;;;;6162129;23;20024;-81
2022/04/09 01:42:49;;;;;;;1.08;0.70;;;;;;;;;;6153555;23;20044;-81
2022/04/09 01:45:18;;;;;;;0.73;0.73;;;;;;;;;;6159988;23;20028;-78
2022/04/09 01:47:47;;;;;;;1.25;0.80;;;;;;;;;;6160947;23;20024;-81
2022/04/09 01:50:15;;;;;;;0.50;0.50;;;;;;;;;;6181745;23;20460;-78
2022/04/09 01:52:43;;;;;;;0.60;0.60;;;;;;;;;;6161113;23;20530;-80
2022/04/09 01:55:11;;;;;;;0.98;0.80;;;;;;;;;;6151483;23;20480;-79
2022/04/09 01:57:42;;;;;;;1.42;0.70;;;;;;;;;;6156314;23;20036;-78
2022/04/09 02:00:12;;;;;;;0.50;0.50;;;;;;;;;;6161728;23;20748;-78
2022/04/09 02:02:40;;;;;;;4.43;1.05;;;;;;;;;;6154221;23;20025;-79
2022/04/09 02:05:11;;;;;;;0.60;0.60;;;;;;;;;;6159578;23;20040;-79
2022/04/09 02:07:41;;;;;;;0.73;0.73;;;;;;;;;;6161492;23;20017;-80
2022/04/09 02:10:10;;;;;;;0.70;0.70;;;;;;;;;;6155359;23;20048;-81
2022/04/09 02:12:41;;;;;;;0.80;0.80;;;;;;;;;;6162185;23;20651;-82
2022/04/09 02:15:11;;;;;;;0.60;0.60;;;;;;;;;;6178199;23;20025;-81
2022/04/09 02:17:40;;;;;;;0.70;0.70;;;;;;;;;;6157059;23;20026;-80
2022/04/09 02:20:14;;;;;;;0.60;0.60;;;;;;;;;;6126678;23;20344;-78
2022/04/09 02:22:43;;;;;;;0.60;0.60;;;;;;;;;;6153376;23;20368;-82
2022/04/09 02:25:13;;;;;;;0.50;0.50;;;;;;;;;;6159467;23;20476;-80
2022/04/09 02:27:41;;;;;;;0.50;0.50;;;;;;;;;;6152138;23;20032;-79
2022/04/09 02:30:21;;;;;;;0.60;0.60;;;;;;;;;;6150061;23;20365;-78
2022/04/09 02:33:02;;;;;;;0.50;0.50;;;;;;;;;;6154931;23;20025;-80
2022/04/09 02:35:43;;;;;;;0.70;0.70;;;;;;;;;;6156479;23;20551;-80
2022/04/09 02:38:13;;;;;;;0.65;0.65;;;;;;;;;;6148906;23;20219;-83
2022/04/09 02:40:41;;;;;;;0.70;0.70;;;;;;;;;;6158588;23;20017;-84
2022/04/09 02:43:10;;;;;;;0.70;0.70;;;;;;;;;;6148439;23;20033;-81
2022/04/09 02:45:38;;;;;;;0.70;0.70;;;;;;;;;;6152477;23;20887;-84
2022/04/09 02:48:11;;;;;;;0.70;0.70;;;;;;;;;;6156177;23;20021;-82
2022/04/09 02:50:40;;;;;;;0.82;0.82;;;;;;;;;;6123531;23;20040;-82
2022/04/09 02:53:11;;;;;;;0.85;0.85;;;;;;;;;;6153537;23;20025;-88
2022/04/09 02:55:45;;;;;;;0.80;0.80;;;;;;;;;;6158801;23;20018;-87
2022/04/09 02:58:13;;;;;;;0.70;0.70;;;;;;;;;;6150336;23;20025;-82
2022/04/09 03:00:45;;;;;;;0.80;0.80;;;;;;;;;;6156543;23;20322;-82
2022/04/09 03:03:13;;;;;;;0.95;0.95;;;;;;;;;;6145106;23;20033;-80
2022/04/09 03:05:49;;;;;;;1.15;1.15;;;;;;;;;;6151832;23;20029;-81
2022/04/09 03:08:17;;;;;;;1.00;1.00;;;;;;;;;;6155590;23;20024;-83
2022/04/09 03:10:45;;;;;;;1.05;1.05;;;;;;;;;;6148175;23;20029;-81
2022/04/09 03:13:14;;;;;;;0.90;0.90;;;;;;;;;;6153772;23;20030;-81
2022/04/09 03:15:44;;;;;;;1.30;1.30;;;;;;;;;;6155853;23;20032;-79
2022/04/09 03:18:16;;;;;;;1.33;1.33;;;;;;;;;;6151019;23;20331;-80
2022/04/09 03:20:44;;;;;;;1.35;1.27;;;;;;;;;;6156406;23;20021;-80
2022/04/09 03:23:14;;;;;;;1.85;1.75;;;;;;;;;;6145086;23;20731;-81
2022/04/09 03:25:53;;;;;;;1.33;1.23;;;;;;;;;;6151378;23;20029;-82
2022/04/09 03:28:25;;;;;;;1.83;1.75;;;;;;;;;;6148311;23;20032;-82
2022/04/09 03:30:53;;;;;;;1.55;1.55;;;;;;;;;;6147110;23;20026;-80
2022/04/09 03:33:22;;;;;;;1.33;1.33;;;;;;;;;;6153317;23;20021;-82
2022/04/09 03:35:58;;;;;;;2.97;1.77;;;;;;;;;;6156444;23;20024;-82
2022/04/09 03:38:31;;;;;;;1.75;1.65;;;;;;;;;;6147683;23;20033;-79
2022/04/09 03:41:00;;;;;;;1.52;1.52;;;;;;;;;;6154791;23;20044;-80
2022/04/09 03:43:37;;;;;;;1.95;1.95;;;;;;;;;;6156443;23;20025;-83
2022/04/09 03:46:07;;;;;;;2.67;2.38;;;;;;;;;;6145642;23;20025;-81
2022/04/09 03:48:36;;;;;;;1.83;1.73;;;;;;;;;;6155843;23;20020;-79
2022/04/09 03:51:04;;;;;;;2.05;1.95;;;;;;;;;;6146242;23;20045;-81
2022/04/09 03:53:34;;;;;;;3.03;2.72;;;;;;;;;;6151425;23;20032;-82
2022/04/09 03:56:04;;;;;;;1.67;1.58;;;;;;;;;;6157964;23;20017;-82
2022/04/09 03:58:37;;;;;;;1.75;1.65;;;;;;;;;;6148079;23;20029;-78
2022/04/09 04:01:08;;;;;;;2.60;2.50;;;;;;;;;;6154326;23;20018;-79
2022/04/09 04:03:37;;;;;;;3.13;2.92;;;;;;;;;;6159140;23;20017;-79
2022/04/09 04:06:06;;;;;;;3.67;3.38;;;;;;;;;;6127605;23;20030;-80
2022/04/09 04:08:35;;;;;;;3.03;2.83;;;;;;;;;;6156631;23;20020;-78
2022/04/09 04:11:04;;;;;;;2.80;2.70;;;;;;;;;;6148161;23;20334;-79
2022/04/09 04:13:38;;;;;;;3.00;2.60;;;;;;;;;;6154125;23;20788;-78
2022/04/09 04:16:09;;;;;;;3.25;3.05;;;;;;;;;;6157799;23;20026;-78
2022/04/09 04:18:41;;;;;;;4.30;4.00;;;;;;;;;;6148581;23;20084;-77
2022/04/09 04:21:10;;;;;;;3.13;2.92;;;;;;;;;;6156357;23;20017;-78
2022/04/09 04:23:40;;;;;;;2.67;2.47;;;;;;;;;;6121864;23;20018;-79
2022/04/09 04:26:15;;;;;;;3.10;2.83;;;;;;;;;;6151201;23;20391;-78
2022/04/09 04:28:51;;;;;;;3.17;2.97;;;;;;;;;;6147184;23;20659;-78
2022/04/09 04:31:22;;;;;;;1.95;1.85;;;;;;;;;;6157817;23;20464;-79
2022/04/09 04:33:51;;;;;;;7.32;4.00;;;;;;;;;;6152265;23;20028;-78
2022/04/09 04:36:20;;;;;;;3.20;3.00;;;;;;;;;;6157593;23;20014;-78
2022/04/09 04:38:48;;;;;;;2.85;2.65;;;;;;;;;;6147703;23;20029;-78
2022/04/09 04:41:17;;;;;;;3.40;3.10;;;;;;;;;;6154889;23;20025;-77
2022/04/09 04:43:49;;;;;;;3.72;2.75;;;;;;;;;;6157179;23;20028;-78
2022/04/09 04:46:18;;;;;;;3.17;2.90;;;;;;;;;;6151079;23;20376;-78
2022/04/09 04:48:49;;;;;;;3.70;3.17;;;;;;;;;;6156777;23;20013;-78
2022/04/09 04:51:21;;;;;;;3.50;3.17;;;;;;;;;;6146938;23;20037;-77
2022/04/09 04:53:49;;;;;;;6.75;2.95;;;;;;;;;;6151238;23;20454;-78
2022/04/09 04:56:23;;;;;;;2.95;2.63;;;;;;;;;;6159360;23;20013;-78
2022/04/09 04:58:55;;;;;;;3.70;3.45;;;;;;;;;;6123070;23;20029;-78
2022/04/09 05:01:23;;;;;;;4.25;3.60;;;;;;;;;;6155112;23;20018;-78
2022/04/09 05:03:58;;;;;;;3.20;2.92;;;;;;;;;;6147633;23;20029;-78
2022/04/09 05:06:30;;;;;;;;;;;;;;;;;;6150448;23;20052;-78
2022/04/09 05:08:58;;;;;;;3.42;2.85;;;;;;;;;;6130794;23;19920;-78
2022/04/09 05:11:49;;;;;;;3.28;3.08;;;;;;;;;;6149010;23;20028;-78
2022/04/09 05:14:21;;;;;;;3.72;3.42;;;;;;;;;;6150234;23;20026;-78
2022/04/09 05:16:57;;;;;;;4.13;3.63;;;;;;;;;;6156196;23;20022;-78
2022/04/09 05:19:27;;;;;;;3.00;2.63;;;;;;;;;;6156405;23;20014;-78
2022/04/09 05:22:04;;;;;;;3.10;2.80;;;;;;;;;;6151832;23;20487;-78
2022/04/09 05:24:36;;;;;;;3.72;3.33;;;;;;;;;;6156718;23;20449;-78
2022/04/09 05:27:05;;;;;;;4.30;3.90;;;;;;;;;;6146790;23;20728;-78
2022/04/09 05:29:36;;;;;;;3.92;3.63;;;;;;;;;;6153260;23;20369;-78
2022/04/09 05:32:05;;;;;;;4.10;2.67;;;;;;;;;;6157376;23;20037;-78
2022/04/09 05:34:39;;;;;;;4.53;4.18;;;;;;;;;;6148835;23;20030;-78
2022/04/09 05:37:07;;;;;;;5.18;4.78;;;;;;;;;;6155323;23;20018;-80
2022/04/09 05:39:36;;;;;;;4.15;3.70;;;;;;;;;;6155414;23;20555;-78
2022/04/09 05:42:06;;;;;;;6.15;4.35;;;;;;;;;;6151488;23;20032;-79
2022/04/09 05:44:34;;;;;;;4.57;4.18;;;;;;;;;;6157225;23;20022;-79
2022/04/09 05:47:03;;;;;;;3.42;3.00;;;;;;;;;;6147498;23;20029;-78
2022/04/09 05:49:31;;;;;;;7.22;4.10;;;;;;;;;;6128900;23;20132;-79
2022/04/09 05:52:01;;;;;;;6.30;5.75;;;;;;;;;;6158927;23;20025;-78
2022/04/09 05:54:31;;;;;;;4.30;3.90;;;;;;;;;;6148676;23;20440;-78
2022/04/09 05:57:02;;;;;;;5.57;4.20;;;;;;;;;;6155825;23;20021;-77
2022/04/09 05:59:35;;;;;;;6.22;4.95;;;;;;;;;;6156448;23;20018;-78
2022/04/09 06:02:03;;;;;;;6.95;5.63;;;;;;;;;;6151787;23;20853;-78
2022/04/09 06:04:32;;;;;;;5.63;4.32;;;;;;;;;;6156277;23;20024;-78
2022/04/09 06:07:02;;;;;;;16.92;7.55;;;;;;;;;;6147232;23;20044;-78
2022/04/09 06:09:38;;;;;;;7.07;5.68;;;;;;;;;;6151729;23;20037;-78
2022/04/09 06:12:15;;;;;;;6.07;5.60;;;;;;;;;;6156574;23;20028;-78
2022/04/09 06:14:59;;;;;;;7.93;5.28;;;;;;;;;;6147057;23;20028;-79
2022/04/09 06:17:36;;;;;;;7.72;4.32;;;;;;;;;;6153182;23;20021;-78
2022/04/09 06:20:06;;;;;;;5.72;5.20;;;;;;;;;;6156574;23;20018;-78
2022/04/09 06:22:39;;;;;;;4.80;4.30;;;;;;;;;;6148475;23;20028;-78
2022/04/09 06:25:08;;;;;;;5.55;5.05;;;;;;;;;;6129679;23;20029;-78
2022/04/09 06:27:41;;;;;;;5.78;4.88;;;;;;;;;;6152375;23;20021;-78
2022/04/09 06:30:12;;;;;;;6.25;5.25;;;;;;;;;;6150213;23;20025;-78
2022/04/09 06:32:45;;;;;;;5.55;5.05;;;;;;;;;;6156561;23;20033;-78
2022/04/09 06:35:14;;;;;;;5.70;4.25;;;;;;;;;;6146135;23;20025;-78
2022/04/09 06:37:42;;;;;;;6.03;4.78;;;;;;;;;;6151625;23;20071;-77
2022/04/09 06:40:13;;;;;;;5.90;5.05;;;;;;;;;;6155769;23;20064;-78
2022/04/09 06:42:41;;;;;;;6.40;4.43;;;;;;;;;;6148362;23;20018;-78
2022/04/09 06:45:20;;;;;;;8.10;5.82;;;;;;;;;;6128858;23;20021;-78
2022/04/09 06:48:15;;;;;;;5.90;5.32;;;;;;;;;;6131297;23;20044;-78
2022/04/09 06:50:59;;;;;;;5.00;3.40;;;;;;;;;;6146921;23;20036;-77
2022/04/09 06:53:27;;;;;;;6.20;5.68;;;;;;;;;;6152438;23;20022;-78
2022/04/09 06:55:55;;;;;;;6.57;5.95;;;;;;;;;;6156228;23;20017;-78
2022/04/09 06:58:23;;;;;;;6.88;5.28;;;;;;;;;;6148971;23;20036;-77
2022/04/09 07:00:52;;;;;;;7.57;6.80;;;;;;;;;;6155465;23;20063;-77
2022/04/09 07:03:20;;;;;;;9.13;7.15;;;;;;;;;;6155743;23;20022;-77
2022/04/09 07:05:48;;;;;;;5.78;5.03;;;;;;;;;;6153500;23;20025;-78
2022/04/09 07:08:16;;;;;;;6.05;5.50;;;;;;;;;;6156635;23;20010;-78
2022/04/09 07:10:44;;;;;;;8.15;5.72;;;;;;;;;;6149579;23;20024;-77
2022/04/09 07:13:12;;;;;;;8.07;6.22;;;;;;;;;;6156006;23;20028;-78
2022/04/09 07:15:40;;;;;;;9.57;5.85;;;;;;;;;;6157225;23;20437;-77
2022/04/09 07:18:08;;;;;;;6.60;5.45;;;;;;;;;;6151679;23;20818;-78
2022/04/09 07:20:37;;;;;;;6.35;4.45;;;;;;;;;;6157673;23;20025;-78
2022/04/09 07:23:05;;;;;;;7.47;6.20;;;;;;;;;;6147305;23;20026;-78
2022/04/09 07:25:34;;;;;;;6.25;5.65;;;;;;;;;;6154590;23;20026;-78
2022/04/09 07:28:03;;;;;;;9.90;6.72;;;;;;;;;;6168290;23;20021;-78
2022/04/09 07:30:31;;;;;;;5.38;4.90;;;;;;;;;;6179638;23;20032;-77
2022/04/09 07:32:59;;;;;;;7.10;4.72;;;;;;;;;;6186084;23;20020;-78
2022/04/09 07:35:28;;;;;;;4.80;4.40;;;;;;;;;;6187088;23;20441;-78
2022/04/09 07:37:58;;;;;;;7.57;4.93;;;;;;;;;;6180892;23;20029;-78
2022/04/09 07:40:30;;;;;;;5.97;4.03;;;;;;;;;;6186850;23;20013;-78
2022/04/09 07:42:59;;;;;;;6.57;4.88;;;;;;;;;;6178174;23;20025;-78
2022/04/09 07:45:28;;;;;;;5.82;4.43;;;;;;;;;;6184252;23;20013;-78
2022/04/09 07:47:57;;;;;;;5.43;4.70;;;;;;;;;;6185913;23;20017;-77
2022/04/09 07:50:29;;;;;;;9.80;4.60;;;;;;;;;;6179768;23;20025;-78
2022/04/09 07:52:57;;;;;;;4.80;3.95;;;;;;;;;;6185632;23;20020;-78
2022/04/09 07:55:25;;;;;;;5.68;4.60;;;;;;;;;;6187270;23;20017;-79
2022/04/09 07:57:54;;;;;;;6.90;5.80;;;;;;;;;;6181920;23;20352;-78
2022/04/09 08:00:24;;;;;;;12.50;7.43;;;;;;;;;;6187023;23;20013;-77
2022/04/09 08:02:55;;;;;;;6.40;5.70;;;;;;;;;;6177672;23;20021;-78
2022/04/09 08:05:23;;;;;;;5.72;5.13;;;;;;;;;;6184122;23;20048;-79
2022/04/09 08:07:51;;;;;;;8.57;5.05;;;;;;;;;;6186243;23;20028;-78
2022/04/09 08:10:20;;;;;;;7.53;5.43;;;;;;;;;;6180798;23;20021;-77
2022/04/09 08:12:49;;;;;;;7.25;4.68;;;;;;;;;;6187469;23;20013;-77
2022/04/09 08:15:18;;;;;;;5.78;5.20;;;;;;;;;;6176117;23;20021;-78
2022/04/09 08:17:48;;;;;;;10.27;4.95;;;;;;;;;;6181666;23;20032;-78
2022/04/09 08:20:19;;;;;;;7.82;5.72;;;;;;;;;;6186763;23;20024;-78
2022/04/09 08:22:48;;;;;;;7.90;6.75;;;;;;;;;;6178481;23;20025;-79
2022/04/09 08:25:17;;;;;;;9.73;6.32;;;;;;;;;;6184383;23;20825;-78
2022/04/09 08:27:49;;;;;;;5.90;5.32;;;;;;;;;;6181586;23;20021;-76
2022/04/09 08:30:19;;;;;;;8.95;5.20;;;;;;;;;;6175649;23;20025;-78
2022/04/09 08:32:49;;;;;;;5.93;5.35;;;;;;;;;;6187086;23;20024;-79
2022/04/09 08:35:18;;;;;;;7.25;6.22;;;;;;;;;;6175996;23;20029;-76
2022/04/09 08:37:56;;;;;;;8.85;5.70;;;;;;;;;;6182091;23;20032;-78
2022/04/09 08:40:25;;;;;;;7.15;5.15;;;;;;;;;;6186947;23;20445;-79
2022/04/09 08:42:54;;;;;;;7.97;6.75;;;;;;;;;;6177738;23;20036;-76
2022/04/09 08:45:22;;;;;;;4.93;4.53;;;;;;;;;;6184312;23;20025;-76
2022/04/09 08:47:51;;;;;;;8.38;5.47;;;;;;;;;;6186332;23;20013;-89
2022/04/09 08:50:23;;;;;;;7.50;6.00;;;;;;;;;;6128778;23;20017;-85
2022/04/09 08:52:54;;;;;;;5.65;4.65;;;;;;;;;;6137181;23;20017;-77
2022/04/09 08:55:22;;;;;;;7.35;5.20;;;;;;;;;;6161467;23;20195;-75
2022/04/09 08:57:50;;;;;;;5.38;4.85;;;;;;;;;;6183132;23;20524;-76
2022/04/09 09:00:19;;;;;;;5.63;5.13;;;;;;;;;;6162184;23;20024;-77
2022/04/09 09:02:55;;;;;;;5.90;3.97;;;;;;;;;;6178881;23;20029;-77
2022/04/09 09:05:30;;;;;;;8.57;6.05;;;;;;;;;;6186130;23;20021;-79
2022/04/09 09:07:59;;;;;;;8.38;4.18;;;;;;;;;;6186406;23;20020;-78
2022/04/09 09:10:27;;;;;;;9.00;5.20;;;;;;;;;;6180583;23;20048;-80
2022/04/09 09:13:00;;;;;;;5.22;4.80;;;;;;;;;;6159990;23;20020;-79
2022/04/09 09:15:28;;;;;;;4.65;3.78;;;;;;;;;;6187982;23;20337;-76
2022/04/09 09:18:00;;;;;;;3.55;3.25;;;;;;;;;;6182294;23;20025;-77
2022/04/09 09:20:29;;;;;;;4.60;2.83;;;;;;;;;;6187413;23;20017;-78
2022/04/09 09:22:57;;;;;;;2.65;2.45;;;;;;;;;;6152169;23;20476;-76
2022/04/09 09:25:25;;;;;;;3.17;2.53;;;;;;;;;;6185290;23;20028;-76
2022/04/09 09:27:57;;;;;;;5.45;3.58;;;;;;;;;;6181918;23;20445;-77
2022/04/09 09:30:25;;;;;;;3.10;2.80;;;;;;;;;;6180047;23;20440;-77
2022/04/09 09:33:20;;;;;;;7.25;3.03;;;;;;;;;;6187001;23;20013;-79
2022/04/09 09:36:08;;;;;;;3.30;3.00;;;;;;;;;;6188115;23;20010;-79
2022/04/09 09:38:36;;;;;;;5.50;2.83;;;;;;;;;;6152716;23;20764;-77
2022/04/09 09:41:04;;;;;;;4.63;2.70;;;;;;;;;;6186767;23;20033;-76
2022/04/09 09:43:32;;;;;;;3.38;3.08;;;;;;;;;;6188061;23;20020;-76
2022/04/09 09:46:01;;;;;;;3.25;3.00;;;;;;;;;;6181536;23;20798;-76
2022/04/09 09:48:35;;;;;;;4.22;3.22;;;;;;;;;;6186559;23;20017;-75
2022/04/09 09:51:03;;;;;;;4.78;2.58;;;;;;;;;;6177378;23;20025;-78
2022/04/09 09:53:32;;;;;;;3.33;2.58;;;;;;;;;;6183807;23;20029;-76
2022/04/09 09:56:02;;;;;;;2.13;2.03;;;;;;;;;;6161511;23;20017;-80
2022/04/09 09:58:30;;;;;;;3.13;2.20;;;;;;;;;;6180368;23;20032;-80
2022/04/09 10:01:16;;;;;;;2.60;2.50;;;;;;;;;;6185727;23;20028;-80
2022/04/09 10:03:44;;;;;;;2.15;2.05;;;;;;;;;;6188150;23;20020;-80
2022/04/09 10:06:13;;;;;;;2.63;2.42;;;;;;;;;;6182024;23;20036;-84
2022/04/09 10:08:41;;;;;;;4.18;3.08;;;;;;;;;;6187380;23;20024;-84
2022/04/09 10:11:10;;;;;;;3.00;2.80;;;;;;;;;;6178125;23;20025;-85
2022/04/09 10:13:42;;;;;;;2.42;2.05;;;;;;;;;;6184061;23;20040;-81
2022/04/09 10:16:11;;;;;;;;;;;;;;;;;;6188851;23;20013;-81
2022/04/09 10:18:39;;;;;;;2.53;2.38;;;;;;;;;;6179143;23;19920;-79
2022/04/09 10:21:11;;;;;;;2.03;1.92;;;;;;;;;;6186215;23;20441;-80
2022/04/09 10:23:40;;;;;;;2.55;2.35;;;;;;;;;;6187710;23;20020;-84
2022/04/09 10:26:09;;;;;;;3.63;2.47;;;;;;;;;;6182332;23;20604;-82
2022/04/09 10:28:40;;;;;;;3.13;2.95;;;;;;;;;;6178749;23;20028;-80
2022/04/09 10:31:23;;;;;;;2.10;2.00;;;;;;;;;;6178386;23;20460;-83
2022/04/09 10:34:02;;;;;;;2.42;2.30;;;;;;;;;;6177100;23;20029;-80
2022/04/09 10:36:46;;;;;;;2.78;2.58;;;;;;;;;;6187687;23;20441;-79
2022/04/09 10:39:22;;;;;;;2.38;2.17;;;;;;;;;;6176250;23;20025;-79
2022/04/09 10:41:51;;;;;;;3.70;2.30;;;;;;;;;;6183111;23;20017;-78
2022/04/09 10:44:37;;;;;;;3.17;2.63;;;;;;;;;;6188019;23;20013;-81
2022/04/09 10:47:06;;;;;;;2.58;1.75;;;;;;;;;;6177999;23;20035;-77
2022/04/09 10:49:36;;;;;;;3.63;2.63;;;;;;;;;;6183571;23;20032;-75
2022/04/09 10:52:17;;;;;;;3.42;3.13;;;;;;;;;;6186611;23;20028;-75
2022/04/09 10:55:03;;;;;;;3.25;2.95;;;;;;;;;;6178437;23;20036;-76
2022/04/09 10:57:42;;;;;;;2.63;2.42;;;;;;;;;;6183849;23;20456;-78
2022/04/09 11:00:31;;;;;;;3.08;2.05;;;;;;;;;;6187725;23;20460;-79
2022/04/09 11:03:17;;;;;;;7.88;3.45;;;;;;;;;;6178100;23;20357;-81
2022/04/09 11:05:47;;;;;;;2.85;2.35;;;;;;;;;;6177196;23;20095;-79
2022/04/09 11:08:20;;;;;;;10.50;2.30;;;;;;;;;;6124671;23;20017;-78
2022/04/09 11:10:48;;;;;;;2.92;2.72;;;;;;;;;;6149323;23;20025;-78
2022/04/09 11:13:29;;;;;;;3.13;2.85;;;;;;;;;;6185540;23;20025;-79
2022/04/09 11:15:57;;;;;;;2.08;1.95;;;;;;;;;;6187690;23;20021;-80
2022/04/09 11:18:25;;;;;;;1.77;1.67;;;;;;;;;;6150026;23;20358;-81
2022/04/09 11:20:53;;;;;;;1.88;1.77;;;;;;;;;;6186092;23;20025;-82
2022/04/09 11:23:24;;;;;;;2.55;2.33;;;;;;;;;;6185064;23;20017;-77
2022/04/09 11:25:53;;;;;;;2.85;2.65;;;;;;;;;;6155780;23;20021;-76
2022/04/09 11:28:21;;;;;;;2.60;2.25;;;;;;;;;;6177835;23;20047;-77
2022/04/09 11:31:00;;;;;;;4.55;2.53;;;;;;;;;;6178332;23;20032;-83
2022/04/09 11:33:28;;;;;;;3.95;1.75;;;;;;;;;;6183304;23;20027;-84
2022/04/09 11:35:57;;;;;;;2.60;2.35;;;;;;;;;;6158769;23;20021;-84
2022/04/09 11:38:26;;;;;;;3.10;2.35;;;;;;;;;;6178102;23;20609;-78
2022/04/09 11:40:55;;;;;;;1.85;1.75;;;;;;;;;;6186165;23;20028;-78
2022/04/09 11:43:24;;;;;;;2.83;2.35;;;;;;;;;;6187246;23;20408;-76
2022/04/09 11:45:53;;;;;;;3.05;2.13;;;;;;;;;;6182553;23;20020;-79
2022/04/09 11:48:25;;;;;;;2.45;2.25;;;;;;;;;;6183802;23;20020;-77
2022/04/09 11:50:53;;;;;;;2.88;2.67;;;;;;;;;;6178019;23;20017;-80
2022/04/09 11:53:23;;;;;;;2.00;1.90;;;;;;;;;;6182287;23;20047;-81
2022/04/09 11:55:59;;;;;;;2.60;2.40;;;;;;;;;;6187142;23;20024;-81
2022/04/09 11:58:33;;;;;;;1.65;1.55;;;;;;;;;;6180227;23;20465;-82
2022/04/09 12:01:02;;;;;;;2.83;2.60;;;;;;;;;;6185590;23;20024;-81
2022/04/09 12:03:30;;;;;;;3.15;2.83;;;;;;;;;;6187465;23;20024;-79
2022/04/09 12:06:01;;;;;;;8.50;3.53;;;;;;;;;;6181735;23;20021;-77
2022/04/09 12:08:31;;;;;;;3.85;3.50;;;;;;;;;;6186542;23;20013;-77
2022/04/09 12:11:02;;;;;;;3.20;2.90;;;;;;;;;;6178448;23;20021;-77
2022/04/09 12:13:31;;;;;;;2.35;2.20;;;;;;;;;;6184120;23;20032;-81
2022/04/09 12:16:04;;;;;;;4.32;2.45;;;;;;;;;;6187879;23;20013;-77
2022/04/09 12:18:32;;;;;;;2.05;1.95;;;;;;;;;;6179229;23;20029;-77
2022/04/09 12:21:16;;;;;;;3.45;3.25;;;;;;;;;;6186155;23;20013;-79
2022/04/09 12:23:46;;;;;;;2.65;2.45;;;;;;;;;;6186803;23;20013;-78
2022/04/09 12:26:23;;;;;;;3.83;2.88;;;;;;;;;;6183148;23;20029;-80
2022/04/09 12:29:09;;;;;;;2.95;2.63;;;;;;;;;;6179530;23;20025;-79
2022/04/09 12:31:37;;;;;;;4.10;2.63;;;;;;;;;;6189127;23;20019;-79
2022/04/09 12:34:05;;;;;;;8.20;2.70;;;;;;;;;;6183332;23;20779;-80
2022/04/09 12:36:35;;;;;;;2.60;2.40;;;;;;;;;;6189738;23;20306;-80
2022/04/09 12:39:28;;;;;;;4.22;3.42;;;;;;;;;;6178137;23;20024;-81
2022/04/09 12:41:58;;;;;;;2.20;2.10;;;;;;;;;;6157804;23;20021;-81
2022/04/09 12:44:26;;;;;;;2.40;2.20;;;;;;;;;;6163053;23;20333;-78
2022/04/09 12:46:54;;;;;;;2.67;2.17;;;;;;;;;;6180117;23;20031;-79
2022/04/09 12:49:29;;;;;;;3.95;2.55;;;;;;;;;;6186137;23;20025;-79
2022/04/09 12:51:58;;;;;;;1.33;1.30;;;;;;;;;;6189382;23;20024;-78
2022/04/09 12:54:30;;;;;;;2.25;2.15;;;;;;;;;;6181509;23;20040;-81
2022/04/09 12:57:05;;;;;;;2.70;1.90;;;;;;;;;;6187684;23;20021;-80
2022/04/09 12:59:34;;;;;;;3.40;2.53;;;;;;;;;;6188978;23;20022;-82
2022/04/09 13:02:03;;;;;;;2.67;2.47;;;;;;;;;;6156394;23;20056;-79
2022/04/09 13:04:31;;;;;;;3.67;2.25;;;;;;;;;;6189085;23;20731;-82
2022/04/09 13:06:59;;;;;;;2.17;1.92;;;;;;;;;;6179562;23;20334;-82
2022/04/09 13:09:27;;;;;;;2.90;2.60;;;;;;;;;;6185285;23;20036;-81
2022/04/09 13:11:56;;;;;;;2.15;1.95;;;;;;;;;;6189195;23;20345;-78
2022/04/09 13:14:24;;;;;;;2.08;1.88;;;;;;;;;;6182720;23;20361;-84
2022/04/09 13:16:53;;;;;;;1.92;1.83;;;;;;;;;;6188281;23;20020;-86
2022/04/09 13:19:22;;;;;;;2.10;1.92;;;;;;;;;;6127291;23;20024;-79
2022/04/09 13:21:51;;;;;;;1.88;1.63;;;;;;;;;;6184368;23;20025;-82
2022/04/09 13:24:19;;;;;;;4.25;2.30;;;;;;;;;;6188206;23;20063;-81
2022/04/09 13:26:47;;;;;;;1.85;1.73;;;;;;;;;;6180258;23;20500;-77
2022/04/09 13:29:15;;;;;;;2.63;2.35;;;;;;;;;;6186267;23;20040;-80
2022/04/09 13:31:43;;;;;;;2.35;1.70;;;;;;;;;;6189075;23;20024;-81
2022/04/09 13:34:14;;;;;;;2.58;2.38;;;;;;;;;;6182232;23;20052;-81
2022/04/09 13:36:42;;;;;;;4.65;2.10;;;;;;;;;;6188469;23;20017;-78
2022/04/09 13:39:11;;;;;;;5.80;4.80;;;;;;;;;;6176887;23;20021;-78
2022/04/09 13:41:59;;;;;;;2.45;2.35;;;;;;;;;;6183474;23;20475;-81
2022/04/09 13:44:28;;;;;;;4.18;2.50;;;;;;;;;;6188786;23;20013;-79
2022/04/09 13:46:56;;;;;;;3.22;2.65;;;;;;;;;;6178971;23;20025;-80
2022/04/09 13:49:24;;;;;;;2.05;1.95;;;;;;;;;;6184432;23;20036;-81
2022/04/09 13:51:57;;;;;;;2.53;2.38;;;;;;;;;;6188356;23;20017;-78
2022/04/09 13:54:26;;;;;;;2.05;1.95;;;;;;;;;;6146134;23;20354;-81
2022/04/09 13:56:54;;;;;;;7.25;2.65;;;;;;;;;;6182374;23;20196;-79
2022/04/09 13:59:22;;;;;;;2.25;2.15;;;;;;;;;;6188005;23;20021;-80
2022/04/09 14:01:50;;;;;;;1.88;1.77;;;;;;;;;;6183073;23;20025;-78
2022/04/09 14:04:19;;;;;;;1.85;1.75;;;;;;;;;;6188058;23;20384;-79
2022/04/09 14:06:47;;;;;;;6.78;1.92;;;;;;;;;;6179856;23;20349;-79
2022/04/09 14:09:16;;;;;;;2.17;2.08;;;;;;;;;;6185257;23;20040;-80
2022/04/09 14:11:44;;;;;;;7.13;3.47;;;;;;;;;;6188332;23;20013;-79
2022/04/09 14:14:15;;;;;;;2.25;2.05;;;;;;;;;;6181752;23;20028;-78
2022/04/09 14:16:48;;;;;;;4.13;2.15;;;;;;;;;;6188262;23;20048;-81
2022/04/09 14:19:17;;;;;;;2.15;2.05;;;;;;;;;;6177005;23;20063;-82
2022/04/09 14:21:45;;;;;;;1.65;1.55;;;;;;;;;;6157550;23;20344;-78
2022/04/09 14:24:14;;;;;;;5.28;1.50;;;;;;;;;;6177364;23;20013;-79
2022/04/09 14:26:42;;;;;;;2.05;1.80;;;;;;;;;;6179605;23;20020;-78
2022/04/09 14:29:10;;;;;;;1.92;1.75;;;;;;;;;;6126759;23;20014;-80
2022/04/09 14:31:38;;;;;;;2.13;1.92;;;;;;;;;;6128769;23;20021;-78
2022/04/09 14:34:06;;;;;;;1.83;1.52;;;;;;;;;;6122870;23;20035;-83
2022/04/09 14:36:37;;;;;;;2.88;2.50;;;;;;;;;;6129021;23;20014;-80
2022/04/09 14:39:06;;;;;;;1.55;1.45;;;;;;;;;;6117563;23;20026;-80
2022/04/09 14:41:36;;;;;;;4.15;1.98;;;;;;;;;;6124589;23;20022;-80
2022/04/09 14:44:04;;;;;;;4.50;2.22;;;;;;;;;;6128570;23;20018;-81
2022/04/09 14:46:32;;;;;;;4.55;2.25;;;;;;;;;;6120985;23;20030;-83
2022/04/09 14:49:00;;;;;;;8.18;2.58;;;;;;;;;;6127437;23;20021;-80
2022/04/09 14:51:29;;;;;;;1.20;1.20;;;;;;;;;;6128653;23;20021;-80
2022/04/09 14:53:57;;;;;;;4.18;2.35;;;;;;;;;;6122625;23;20018;-81
2022/04/09 14:56:25;;;;;;;1.85;1.75;;;;;;;;;;6128430;23;20069;-80
2022/04/09 14:58:58;;;;;;;4.40;1.65;;;;;;;;;;6118623;23;20029;-80
2022/04/09 15:01:27;;;;;;;1.20;1.15;;;;;;;;;;6125971;23;20025;-80
2022/04/09 15:03:55;;;;;;;2.92;2.17;;;;;;;;;;6128434;23;20014;-83
2022/04/09 15:06:24;;;;;;;3.67;1.88;;;;;;;;;;6121446;23;20026;-84
2022/04/09 15:09:05;;;;;;;1.33;1.25;;;;;;;;;;6104082;23;20022;-85
2022/04/09 15:11:34;;;;;;;2.88;2.35;;;;;;;;;;6127537;23;20024;-81
2022/04/09 15:14:02;;;;;;;2.70;1.35;;;;;;;;;;6122831;23;20338;-79